Time;durP1;ratioP1;P1;durP2;ratioP2;P2;SDS_P1;SDS_P2;PMS_P1;PMS_P2;Temp;Humidity;BMP_temperature;BMP_pressure;BME280_temperature;BME280_humidity;BME280_pressure;Samples;Min_cycle;Max_cycle;Signal;HPM_P1;HPM_P2
2023/01/29 00:01:16;;;;;;;8.67;6.20;;;3.00;99.90;;;2.65;67.12;95078.31;5017267;28;20480;-57
2023/01/29 00:03:44;;;;;;;10.03;7.63;;;3.00;99.90;;;2.65;67.02;95079.19;5013924;28;20453;-56
2023/01/29 00:06:13;;;;;;;10.13;7.10;;;2.90;99.90;;;2.66;67.97;95080.84;5016806;28;20957;-57
2023/01/29 00:08:40;;;;;;;10.77;6.70;;;3.00;99.90;;;2.66;67.93;95074.81;5020206;28;20492;-57
2023/01/29 00:11:08;;;;;;;9.90;7.27;;;3.00;99.90;;;2.69;67.53;95085.03;5006534;28;20482;-57
2023/01/29 00:13:36;;;;;;;10.60;7.80;;;3.00;99.90;;;2.67;67.01;95079.09;5009255;28;20499;-57
2023/01/29 00:16:03;;;;;;;8.57;6.30;;;3.00;99.90;;;2.64;67.18;95082.69;5004840;28;20478;-56
2023/01/29 00:18:30;;;;;;;10.40;7.67;;;3.00;99.90;;;2.64;67.65;95084.47;5013660;28;20459;-57
2023/01/29 00:20:58;;;;;;;11.30;7.10;;;3.00;99.90;;;2.63;67.23;95086.22;5012470;28;20482;-56
2023/01/29 00:23:26;;;;;;;13.40;7.33;;;3.00;99.90;;;2.64;67.47;95094.84;5012670;28;20492;-57
2023/01/29 00:25:54;;;;;;;11.13;7.47;;;2.90;99.90;;;2.65;67.50;95097.34;5007280;28;20630;-56
2023/01/29 00:28:21;;;;;;;11.20;7.73;;;3.00;99.90;;;2.64;67.19;95095.66;5012583;28;20968;-56
2023/01/29 00:30:48;;;;;;;7.10;6.23;;;2.90;99.90;;;2.64;67.63;95092.25;5014680;28;20480;-57
2023/01/29 00:33:15;;;;;;;8.90;6.70;;;3.00;99.90;;;2.61;68.12;95098.44;5005037;28;20485;-56
2023/01/29 00:35:43;;;;;;;8.80;6.80;;;2.90;99.90;;;2.59;67.52;95096.88;5011480;28;20875;-58
2023/01/29 00:38:10;;;;;;;8.67;7.10;;;2.90;99.90;;;2.57;67.66;95101.28;5013801;28;20468;-56
2023/01/29 00:46:09;;;;;;;9.77;6.90;;;2.80;99.90;;;2.51;67.98;95092.09;5020488;28;20540;-56
2023/01/29 00:48:36;;;;;;;8.20;6.70;;;2.80;99.90;;;2.49;67.81;95092.19;5016388;28;20485;-55
2023/01/29 00:51:04;;;;;;;8.87;6.30;;;2.80;99.90;;;2.51;68.59;95087.75;5015115;28;21035;-55
2023/01/29 00:53:32;;;;;;;7.77;6.20;;;2.80;99.90;;;2.49;67.60;95094.78;5012660;28;20488;-56
2023/01/29 00:56:01;;;;;;;12.30;7.33;;;2.80;99.90;;;2.48;67.99;95085.31;5017178;28;21019;-57
2023/01/29 00:58:33;;;;;;;12.27;7.03;;;2.80;99.90;;;2.47;67.88;95094.00;5011873;28;20992;-56
2023/01/29 01:01:01;;;;;;;7.87;6.50;;;2.80;99.90;;;2.46;67.53;95094.09;5005312;28;20484;-57
2023/01/29 01:03:28;;;;;;;7.87;6.37;;;2.80;99.90;;;2.47;68.04;95085.41;5015233;28;20484;-57
2023/01/29 01:06:05;;;;;;;10.43;6.67;;;2.80;99.90;;;2.47;68.57;95090.59;5012577;28;20515;-54
2023/01/29 01:11:19;;;;;;;9.83;6.67;;;2.80;99.90;;;2.48;68.36;95087.09;5004629;28;20476;-57
2023/01/29 01:13:46;;;;;;;8.53;6.20;;;2.80;99.90;;;2.48;68.08;95085.31;5004824;28;20468;-55
2023/01/29 01:16:14;;;;;;;8.37;6.60;;;2.80;99.90;;;2.47;67.91;95083.63;5010356;28;20480;-56
2023/01/29 01:18:42;;;;;;;9.23;6.23;;;2.80;99.90;;;2.47;67.91;95094.00;5012012;28;21043;-56
2023/01/29 01:21:09;;;;;;;9.37;6.63;;;2.80;99.90;;;2.45;68.35;95087.25;5010463;28;20510;-56
2023/01/29 01:23:37;;;;;;;10.53;6.80;;;2.80;99.90;;;2.44;67.21;95081.22;5014068;28;20445;-56
2023/01/29 01:26:10;;;;;;;9.20;5.70;;;2.80;99.90;;;2.43;67.34;95083.88;5009487;28;20487;-57
2023/01/29 01:28:39;;;;;;;7.47;6.40;;;2.80;99.90;;;2.42;67.87;95082.22;5011105;28;20450;-55
2023/01/29 01:31:10;;;;;;;7.53;6.10;;;2.80;99.90;;;2.43;68.03;95079.56;5015730;28;20480;-55
2023/01/29 01:33:38;;;;;;;6.43;5.80;;;2.80;99.90;;;2.44;67.34;95089.00;5011869;28;20465;-56
2023/01/29 01:36:08;;;;;;;7.80;5.60;;;2.80;99.90;;;2.44;67.42;95086.41;5013524;28;20481;-55
2023/01/29 01:38:43;;;;;;;7.27;5.63;;;2.80;99.90;;;2.44;67.96;95085.56;5013393;28;20465;-55
2023/01/29 01:41:12;;;;;;;10.03;5.97;;;2.80;99.90;;;2.43;67.65;95086.47;5015383;28;20848;-58
2023/01/29 01:43:52;;;;;;;7.83;5.43;;;2.80;99.90;;;2.43;68.01;95089.94;5007798;28;20536;-57
2023/01/29 01:46:19;;;;;;;11.20;5.97;;;2.80;99.90;;;2.42;67.63;95083.06;5014056;28;20477;-54
2023/01/29 01:48:49;;;;;;;10.70;5.80;;;2.80;99.90;;;2.42;68.44;95083.06;5013873;28;20450;-57
2023/01/29 01:51:16;;;;;;;6.50;5.63;;;2.80;99.90;;;2.45;68.05;95082.06;5015798;28;20492;-57
2023/01/29 01:53:45;;;;;;;8.70;6.03;;;2.80;99.90;;;2.48;67.93;95087.09;5012159;28;20923;-58
2023/01/29 01:56:15;;;;;;;9.23;6.87;;;2.80;99.90;;;2.51;67.55;95086.91;5015002;28;21058;-57
2023/01/29 01:58:45;;;;;;;7.63;5.77;;;2.80;99.90;;;2.52;67.44;95098.94;5014537;28;20928;-55
2023/01/29 02:01:14;;;;;;;7.40;6.17;;;2.80;99.90;;;2.51;68.11;95090.34;5018168;28;20493;-57
2023/01/29 02:09:34;;;;;;;7.33;6.10;;;2.90;99.90;;;2.58;67.58;95095.19;5016188;28;20724;-54
2023/01/29 02:12:02;;;;;;;9.63;7.00;;;2.90;99.90;;;2.58;68.14;95098.63;5016759;28;20501;-57
2023/01/29 02:14:30;;;;;;;9.33;6.30;;;2.90;99.90;;;2.57;68.41;95099.56;5016262;28;20492;-56
2023/01/29 02:17:00;;;;;;;6.83;5.47;;;2.90;99.90;;;2.55;68.02;95097.97;5017189;28;20481;-54
2023/01/29 02:19:38;;;;;;;9.50;6.57;;;2.90;99.90;;;2.55;67.67;95092.75;5013603;28;20523;-56
2023/01/29 02:22:29;;;;;;;8.07;6.07;;;2.90;99.90;;;2.58;68.02;95102.97;5011738;28;20491;-57
2023/01/29 02:25:36;;;;;;;7.67;5.47;;;2.90;99.90;;;2.59;67.84;95102.06;4993228;28;20453;-57
2023/01/29 02:28:24;;;;;;;8.40;6.87;;;2.90;99.90;;;2.60;67.91;95098.53;5014710;28;20970;-54
2023/01/29 02:30:57;;;;;;;9.00;6.30;;;2.90;99.90;;;2.60;68.37;95101.97;5010272;28;20590;-56
2023/01/29 02:33:32;;;;;;;10.20;6.27;;;2.90;99.90;;;2.60;67.90;95101.97;5009748;28;20460;-56
2023/01/29 02:36:05;;;;;;;8.67;6.30;;;2.90;99.90;;;2.62;68.53;95110.50;5011578;28;20531;-56
2023/01/29 02:38:37;;;;;;;7.10;5.60;;;2.90;99.90;;;2.62;68.44;95113.09;5012153;28;20455;-55
2023/01/29 02:41:06;;;;;;;7.13;5.80;;;2.90;99.90;;;2.62;68.24;95115.69;5008763;28;20540;-58
2023/01/29 02:43:41;;;;;;;7.13;5.60;;;2.90;99.90;;;2.64;68.03;95113.84;5012599;28;20469;-57
2023/01/29 02:46:14;;;;;;;6.47;5.80;;;2.90;99.90;;;2.64;68.77;95124.22;5018093;28;20476;-58
2023/01/29 02:48:45;;;;;;;9.07;6.00;;;3.00;99.90;;;2.66;68.29;95127.56;5017741;28;20469;-55
2023/01/29 02:51:19;;;;;;;9.57;6.83;;;3.00;99.90;;;2.68;68.84;95120.56;5019524;28;20498;-55
2023/01/29 02:53:51;;;;;;;8.13;6.53;;;3.00;99.90;;;2.71;69.13;95122.13;5017183;28;20836;-56
2023/01/29 02:56:20;;;;;;;6.17;5.40;;;3.00;99.90;;;2.73;68.67;95115.09;5012547;28;20567;-55
2023/01/29 02:58:52;;;;;;;7.67;6.13;;;3.00;99.90;;;2.74;67.88;95119.34;5014400;28;20475;-55
2023/01/29 03:01:22;;;;;;;7.87;6.47;;;3.00;99.90;;;2.74;68.57;95123.72;5014521;28;20483;-55
2023/01/29 03:03:52;;;;;;;10.13;6.13;;;3.00;99.90;;;2.74;68.46;95115.94;5011191;28;20463;-57
2023/01/29 03:06:21;;;;;;;5.13;4.63;;;3.00;99.90;;;2.76;68.05;95114.06;5008823;28;20485;-54
2023/01/29 03:08:53;;;;;;;7.23;5.43;;;3.10;99.90;;;2.76;67.97;95120.13;5018703;28;20480;-57
2023/01/29 03:11:20;;;;;;;7.27;4.60;;;3.10;99.90;;;2.77;68.31;95114.00;5014858;28;20484;-56
2023/01/29 03:13:51;;;;;;;5.30;3.73;;;3.10;99.90;;;2.78;68.27;95120.03;5016557;28;20454;-56
2023/01/29 03:16:22;;;;;;;4.63;4.23;;;3.10;99.90;;;2.77;68.31;95121.78;5017660;28;20906;-53
2023/01/29 03:18:53;;;;;;;5.33;4.60;;;3.10;99.90;;;2.76;67.80;95121.88;5008107;28;20461;-56
2023/01/29 03:32:27;;;;;;;5.77;4.83;;;3.10;99.90;;;2.79;68.65;95130.34;5011971;28;20499;-57
2023/01/29 03:34:58;;;;;;;6.40;5.00;;;3.10;99.90;;;2.81;68.46;95127.66;5010870;28;20473;-58
2023/01/29 03:37:29;;;;;;;4.67;4.13;;;3.10;99.90;;;2.82;67.89;95130.16;5016446;28;20519;-56
2023/01/29 03:39:56;;;;;;;4.57;4.10;;;3.10;99.90;;;2.81;67.73;95128.50;5016885;28;20508;-56
2023/01/29 03:42:28;;;;;;;6.20;5.03;;;3.10;99.90;;;2.82;68.13;95127.56;5011887;28;21000;-56
2023/01/29 03:45:02;;;;;;;4.70;4.30;;;3.10;99.90;;;2.83;68.26;95128.41;5015089;28;20980;-56
2023/01/29 03:47:36;;;;;;;4.50;3.50;;;3.10;99.90;;;2.82;68.14;95126.72;5012597;28;21012;-56
2023/01/29 03:50:05;;;;;;;4.53;4.23;;;3.10;99.90;;;2.82;67.54;95126.72;5008554;28;20486;-58
2023/01/29 03:52:39;;;;;;;4.80;4.20;;;3.10;99.90;;;2.79;68.04;95122.56;5017252;28;20791;-56
2023/01/29 03:55:12;;;;;;;6.30;4.77;;;3.10;99.90;;;2.77;67.60;95124.38;5018909;28;20510;-55
2023/01/29 03:57:41;;;;;;;4.50;4.10;;;3.10;99.90;;;2.78;67.45;95127.84;5015481;28;20520;-56
2023/01/29 04:00:15;;;;;;;5.00;4.13;;;3.10;99.90;;;2.77;66.96;95132.16;5018220;28;20464;-56
2023/01/29 04:02:47;;;;;;;4.47;4.07;;;3.10;99.90;;;2.76;66.99;95127.91;5013018;28;20476;-56
2023/01/29 04:05:19;;;;;;;4.70;4.20;;;3.10;99.90;;;2.76;67.27;95122.72;5012938;28;20483;-56
2023/01/29 04:07:46;;;;;;;4.00;3.80;;;3.00;99.90;;;2.78;67.95;95125.22;5014749;28;20825;-55
2023/01/29 04:10:16;;;;;;;4.70;4.30;;;3.10;99.90;;;2.79;66.98;95132.09;5011993;28;20500;-56
2023/01/29 04:12:47;;;;;;;5.30;4.13;;;3.10;99.90;;;2.78;67.54;95126.06;5018090;28;20544;-55
2023/01/29 04:15:16;;;;;;;5.67;4.80;;;3.10;99.90;;;2.78;67.34;95131.25;5018066;28;20549;-56
2023/01/29 04:17:45;;;;;;;5.30;3.77;;;3.10;99.90;;;2.79;67.72;95138.13;5017721;28;20460;-59
2023/01/29 04:20:13;;;;;;;5.00;4.53;;;3.10;99.90;;;2.81;67.37;95140.66;5017393;28;21398;-57
2023/01/29 04:22:42;;;;;;;5.80;5.00;;;3.10;99.90;;;2.82;67.91;95144.91;5017803;28;20466;-55
2023/01/29 04:25:14;;;;;;;4.47;4.00;;;3.10;99.90;;;2.83;67.96;95137.03;5012872;28;20508;-55
2023/01/29 04:27:46;;;;;;;4.57;4.17;;;3.10;99.90;;;2.82;67.85;95137.97;5020716;28;20532;-56
2023/01/29 04:30:24;;;;;;;4.80;4.30;;;3.10;99.90;;;2.81;67.94;95146.66;5018543;28;21129;-57
2023/01/29 04:33:10;;;;;;;3.87;3.57;;;3.10;99.90;;;2.82;67.97;95143.16;5010624;28;20445;-56
2023/01/29 04:35:47;;;;;;;4.97;4.40;;;3.10;99.90;;;2.83;68.00;95141.38;5011018;28;20482;-55
2023/01/29 04:38:21;;;;;;;4.67;4.30;;;3.10;99.90;;;2.84;68.36;95143.06;5016907;28;20445;-58
2023/01/29 04:40:51;;;;;;;4.50;4.10;;;3.20;99.90;;;2.84;68.13;95143.91;5009108;28;21019;-56
2023/01/29 04:43:25;;;;;;;4.90;3.93;;;3.10;99.90;;;2.83;68.03;95144.81;5003921;28;20450;-55
2023/01/29 04:46:07;;;;;;;5.53;4.30;;;3.10;99.90;;;2.81;67.52;95144.06;5010867;28;20470;-57
2023/01/29 04:48:42;;;;;;;5.77;4.93;;;3.10;99.90;;;2.81;67.58;95145.84;5010535;28;20449;-55
2023/01/29 04:51:18;;;;;;;6.80;5.87;;;3.10;99.90;;;2.79;67.23;95145.94;5023880;28;20500;-56
2023/01/29 04:53:47;;;;;;;4.47;4.07;;;3.10;99.90;;;2.80;67.46;95149.34;5026475;28;20539;-58
2023/01/29 04:56:19;;;;;;;6.40;5.00;;;3.10;99.90;;;2.80;68.19;95146.75;5025078;28;20857;-56
2023/01/29 04:58:49;;;;;;;6.07;4.30;;;3.10;99.90;;;2.82;68.21;95150.94;5015843;28;20953;-55
2023/01/29 05:01:19;;;;;;;5.30;4.80;;;3.10;99.90;;;2.83;68.53;95149.19;5001068;28;20480;-55
2023/01/29 05:03:49;;;;;;;5.43;4.40;;;3.10;99.90;;;2.83;68.49;95150.00;5007515;28;20469;-56
2023/01/29 05:06:17;;;;;;;6.37;4.80;;;3.10;99.90;;;2.82;68.24;95153.53;5000309;28;20473;-55
2023/01/29 05:08:44;;;;;;;5.07;4.67;;;3.10;99.90;;;2.81;67.82;95151.03;5007000;28;20986;-57
2023/01/29 05:11:13;;;;;;;4.53;4.13;;;3.10;99.90;;;2.83;68.29;95151.78;5003929;28;20650;-57
2023/01/29 05:13:40;;;;;;;3.90;3.53;;;3.10;99.90;;;2.82;68.45;95153.53;5010972;28;20473;-55
2023/01/29 05:16:10;;;;;;;4.93;4.43;;;3.10;99.90;;;2.84;68.42;95158.66;5011674;28;20485;-56
2023/01/29 05:18:39;;;;;;;4.93;4.47;;;3.10;99.90;;;2.83;67.78;95155.19;5011905;28;20458;-57
2023/01/29 05:21:07;;;;;;;5.00;4.03;;;3.10;99.90;;;2.83;68.58;95155.19;5011205;28;20488;-55
2023/01/29 05:23:35;;;;;;;4.37;4.07;;;3.10;99.90;;;2.82;67.63;95165.69;5007105;28;20485;-56
2023/01/29 05:26:02;;;;;;;6.00;4.17;;;3.10;99.90;;;2.81;67.74;95162.25;5006108;28;20557;-57
2023/01/29 05:28:28;;;;;;;5.03;4.50;;;3.10;99.90;;;2.79;68.11;95160.66;5009801;28;20483;-56
2023/01/29 05:30:56;;;;;;;4.67;4.17;;;3.10;99.90;;;2.80;68.11;95162.34;5015538;28;20496;-56
2023/01/29 05:33:25;;;;;;;6.10;4.60;;;3.10;99.90;;;2.81;68.56;95170.03;5006737;28;21016;-56
2023/01/29 05:35:54;;;;;;;4.53;4.13;;;3.10;99.90;;;2.81;67.87;95157.06;4999090;28;20474;-58
2023/01/29 05:38:21;;;;;;;5.57;4.10;;;3.10;99.90;;;2.83;67.85;95170.78;5017233;28;20864;-56
2023/01/29 05:40:49;;;;;;;4.63;4.13;;;3.10;99.90;;;2.84;67.61;95172.47;5004448;28;20478;-56
2023/01/29 05:43:17;;;;;;;4.90;4.30;;;3.10;99.90;;;2.86;68.08;95174.97;5014164;28;20457;-56
2023/01/29 05:45:51;;;;;;;4.20;3.90;;;3.10;99.90;;;2.87;68.01;95181.88;5011305;28;20511;-55
2023/01/29 05:48:18;;;;;;;4.50;3.43;;;3.20;99.90;;;2.89;68.08;95181.78;5017354;28;20461;-56
2023/01/29 05:50:46;;;;;;;3.93;3.63;;;3.20;99.90;;;2.91;67.82;95182.53;5013730;28;20500;-57
2023/01/29 05:53:14;;;;;;;5.47;4.20;;;3.20;99.90;;;2.90;67.36;95186.88;5011363;28;20472;-57
2023/01/29 05:55:45;;;;;;;5.10;4.70;;;3.20;99.90;;;2.91;68.19;95183.34;5017236;28;20476;-57
2023/01/29 05:58:12;;;;;;;5.37;4.60;;;3.20;99.90;;;2.91;67.47;95183.34;5017817;28;20575;-57
2023/01/29 06:00:39;;;;;;;4.97;4.57;;;3.20;99.90;;;2.92;67.23;95189.41;5016369;28;20518;-56
2023/01/29 06:03:06;;;;;;;3.80;3.50;;;3.20;99.90;;;2.92;67.58;95189.41;5011586;28;21035;-56
2023/01/29 06:05:34;;;;;;;7.03;4.00;;;3.20;99.90;;;2.90;67.55;95191.22;5015468;28;20504;-57
2023/01/29 06:08:01;;;;;;;4.60;4.17;;;3.20;99.90;;;2.91;67.54;95193.75;5011208;28;20454;-55
2023/01/29 06:10:30;;;;;;;5.30;4.80;;;3.20;99.90;;;2.92;67.37;95199.78;5011033;28;20610;-56
2023/01/29 06:12:57;;;;;;;5.57;4.43;;;3.20;99.90;;;2.92;67.33;95207.59;5013942;28;20457;-57
2023/01/29 06:15:25;;;;;;;4.90;4.43;;;3.20;99.90;;;2.92;67.35;95205.00;5018119;28;20472;-56
2023/01/29 06:17:54;;;;;;;6.37;5.27;;;3.20;99.90;;;2.92;67.91;95207.59;5015091;28;20508;-57
2023/01/29 06:20:21;;;;;;;5.00;4.60;;;3.20;99.90;;;2.95;67.70;95210.00;5018847;28;20476;-56
2023/01/29 06:22:48;;;;;;;5.90;4.67;;;3.20;99.90;;;2.97;68.01;95210.75;5018091;28;20456;-57
2023/01/29 06:25:16;;;;;;;8.93;6.07;;;3.30;99.90;;;2.98;67.36;95215.88;5015683;28;20476;-56
2023/01/29 06:27:44;;;;;;;7.37;5.53;;;3.30;99.90;;;2.98;67.81;95215.03;5011528;28;21000;-55
2023/01/29 06:30:13;;;;;;;5.97;5.37;;;3.30;99.90;;;2.99;68.34;95227.09;5007902;28;20474;-57
2023/01/29 06:32:40;;;;;;;5.87;4.80;;;3.30;99.90;;;2.99;68.41;95219.28;5009143;28;20459;-55
2023/01/29 06:35:09;;;;;;;7.33;5.37;;;3.30;99.90;;;3.00;67.81;95227.00;5009276;28;20470;-57
2023/01/29 06:37:37;;;;;;;5.93;5.17;;;3.30;99.90;;;3.02;68.35;95235.56;5016339;28;20452;-56
2023/01/29 06:40:05;;;;;;;7.30;5.90;;;3.30;99.90;;;3.05;67.97;95237.16;5011102;28;20457;-57
2023/01/29 06:42:32;;;;;;;7.07;5.47;;;3.30;99.90;;;3.07;68.36;95234.47;5010452;28;20544;-58
2023/01/29 06:45:01;;;;;;;7.93;5.70;;;3.40;99.90;;;3.08;67.99;95234.38;5013192;28;20460;-59
2023/01/29 06:47:28;;;;;;;6.60;5.63;;;3.40;99.90;;;3.10;67.75;95237.75;5015745;28;20520;-57
2023/01/29 06:49:55;;;;;;;6.90;6.20;;;3.40;99.90;;;3.11;68.37;95231.59;5015288;28;20453;-57
2023/01/29 06:52:24;;;;;;;6.97;5.27;;;3.40;99.90;;;3.11;68.00;95241.19;5008292;28;21086;-58
2023/01/29 06:54:51;;;;;;;7.67;5.23;;;3.40;99.90;;;3.10;68.30;95242.94;5014641;28;20468;-56
2023/01/29 06:57:19;;;;;;;6.47;5.23;;;3.40;99.90;;;3.11;67.96;95246.38;5016178;28;20450;-58
2023/01/29 06:59:46;;;;;;;8.77;5.87;;;3.40;99.90;;;3.12;68.13;95248.06;5021623;28;20516;-57
2023/01/29 07:02:15;;;;;;;8.60;6.00;;;3.40;99.90;;;3.14;67.88;95252.22;5022944;28;20472;-57
2023/01/29 07:04:42;;;;;;;8.00;6.40;;;3.40;99.90;;;3.14;67.68;95249.63;5018351;28;20453;-58
2023/01/29 07:07:12;;;;;;;9.80;7.00;;;3.40;99.90;;;3.16;67.92;95249.53;5015875;28;20473;-57
2023/01/29 07:09:40;;;;;;;8.53;6.57;;;3.50;99.90;;;3.18;67.55;95261.53;5017012;28;20884;-58
2023/01/29 07:12:08;;;;;;;10.73;7.43;;;3.50;99.90;;;3.20;67.98;95264.88;5014411;28;20887;-56
2023/01/29 07:14:35;;;;;;;9.13;6.90;;;3.50;99.90;;;3.20;68.30;95267.47;5019059;28;20481;-57
2023/01/29 07:17:02;;;;;;;9.20;6.63;;;3.50;99.90;;;3.23;67.96;95269.91;5013155;28;20473;-57
2023/01/29 07:19:31;;;;;;;10.30;7.40;;;3.50;99.90;;;3.25;68.45;95269.81;5009650;28;20454;-57
2023/01/29 07:22:01;;;;;;;8.17;6.70;;;3.60;99.90;;;3.26;68.23;95268.09;5011752;28;20543;-55
2023/01/29 07:24:28;;;;;;;9.10;6.67;;;3.60;99.90;;;3.26;67.89;95270.69;5014919;28;20540;-56
2023/01/29 07:26:56;;;;;;;6.23;5.63;;;3.60;99.90;;;3.26;67.81;95266.31;5018153;28;20563;-57
2023/01/29 07:29:23;;;;;;;8.30;6.47;;;3.60;99.90;;;3.28;67.52;95271.44;5016918;28;20982;-55
2023/01/29 07:31:50;;;;;;;10.03;6.80;;;3.60;99.90;;;3.29;68.56;95275.72;5020252;28;20493;-56
2023/01/29 07:34:18;;;;;;;8.60;6.70;;;3.60;99.90;;;3.30;68.10;95277.38;5017380;28;20690;-56
2023/01/29 07:36:46;;;;;;;8.80;6.23;;;3.60;99.90;;;3.32;67.90;95276.38;5015035;28;20481;-57
2023/01/29 07:39:14;;;;;;;8.80;7.33;;;3.60;99.90;;;3.34;68.46;95284.09;5017244;28;20557;-58
2023/01/29 07:41:41;;;;;;;8.00;6.13;;;3.60;99.90;;;3.36;67.82;95274.44;5016291;28;20900;-57
2023/01/29 07:44:08;;;;;;;8.67;7.57;;;3.60;99.90;;;3.39;68.00;95276.84;5012304;28;20531;-56
2023/01/29 07:46:36;;;;;;;8.03;6.40;;;3.70;99.90;;;3.44;68.34;95274.84;5016816;28;21032;-56
2023/01/29 07:49:03;;;;;;;9.03;6.60;;;3.70;99.90;;;3.47;68.96;95277.28;5016118;28;20463;-57
2023/01/29 07:51:30;;;;;;;8.37;6.97;;;3.80;99.90;;;3.49;68.37;95272.81;5015768;28;20485;-55
2023/01/29 07:53:59;;;;;;;12.57;7.23;;;3.80;99.90;;;3.50;67.93;95284.06;5017150;28;20968;-58
2023/01/29 07:56:26;;;;;;;7.53;6.53;;;3.80;99.90;;;3.51;67.46;95283.97;5020718;28;20472;-57
2023/01/29 07:58:53;;;;;;;7.87;6.97;;;3.80;99.90;;;3.47;67.45;95277.28;5012900;28;20833;-56
2023/01/29 08:01:21;;;;;;;16.47;6.70;;;3.80;99.90;;;3.52;67.74;95292.63;5006228;28;20477;-56
2023/01/29 08:03:48;;;;;;;7.77;6.63;;;3.80;99.90;;;3.51;67.62;95286.56;5019418;28;20452;-57
2023/01/29 08:06:15;;;;;;;14.23;6.83;;;3.80;99.90;;;3.50;67.38;95292.72;5009284;28;20857;-58
2023/01/29 08:08:43;;;;;;;10.70;6.50;;;3.80;99.90;;;3.50;67.16;95284.91;5014020;28;22102;-58
2023/01/29 08:11:11;;;;;;;7.50;6.57;;;3.80;99.90;;;3.50;66.89;95292.72;5015280;28;20542;-56
2023/01/29 08:13:39;;;;;;;12.40;7.53;;;3.80;99.90;;;3.49;67.29;95293.63;5017019;28;20489;-57
2023/01/29 08:16:08;;;;;;;8.17;6.50;;;3.80;99.90;;;3.49;66.85;95290.19;5008610;28;20473;-56
2023/01/29 08:18:36;;;;;;;8.43;6.40;;;3.80;99.90;;;3.46;66.83;95295.56;5009823;28;20450;-54
2023/01/29 08:21:04;;;;;;;9.80;7.53;;;3.80;99.90;;;3.43;66.70;95293.97;5010302;28;20481;-56
2023/01/29 08:23:31;;;;;;;13.27;6.87;;;3.70;99.90;;;3.44;67.33;95300.84;5011261;28;20536;-57
2023/01/29 08:25:58;;;;;;;8.57;6.63;;;3.70;99.90;;;3.45;67.21;95294.72;5019008;28;20488;-58
2023/01/29 08:28:27;;;;;;;10.70;7.43;;;3.80;99.90;;;3.45;66.96;95301.69;5008678;28;20461;-56
2023/01/29 08:30:54;;;;;;;10.83;7.30;;;3.70;99.90;;;3.45;66.53;95301.69;5007277;28;20492;-57
2023/01/29 08:33:22;;;;;;;8.60;7.27;;;3.70;99.90;;;3.45;67.05;95301.69;5017443;28;20450;-57
2023/01/29 08:35:49;;;;;;;8.93;6.77;;;3.70;99.90;;;3.45;66.70;95312.91;5006134;28;20921;-57
2023/01/29 08:38:17;;;;;;;9.50;8.00;;;3.70;99.90;;;3.46;67.08;95309.41;5012429;28;20540;-58
2023/01/29 08:40:44;;;;;;;9.10;8.03;;;3.70;99.90;;;3.47;66.49;95316.28;5013281;28;20482;-58
2023/01/29 08:43:12;;;;;;;12.53;7.77;;;3.80;99.90;;;3.48;66.31;95312.75;5014118;28;20453;-58
2023/01/29 08:45:42;;;;;;;10.17;7.10;;;3.80;99.90;;;3.51;66.82;95314.34;5015538;28;20474;-56
2023/01/29 08:48:09;;;;;;;12.23;7.30;;;3.80;99.90;;;3.52;66.30;95321.22;5012982;28;20842;-57
2023/01/29 08:50:37;;;;;;;12.20;7.47;;;3.80;99.90;;;3.52;66.64;95318.63;4995156;28;20971;-57
2023/01/29 08:53:06;;;;;;;7.93;7.00;;;3.80;99.90;;;3.52;66.45;95324.66;5001965;28;20504;-57
2023/01/29 08:55:35;;;;;;;9.43;7.90;;;3.80;99.90;;;3.55;66.34;95332.28;5001370;28;21255;-56
2023/01/29 08:58:04;;;;;;;8.63;7.10;;;3.80;99.90;;;3.54;66.21;95333.19;5002567;28;20845;-54
2023/01/29 09:00:31;;;;;;;12.27;8.23;;;3.80;99.90;;;3.54;66.16;95333.19;5003422;28;20555;-54
2023/01/29 09:03:00;;;;;;;9.37;7.30;;;3.80;99.90;;;3.55;66.42;95339.25;5004819;28;20580;-57
2023/01/29 09:05:27;;;;;;;8.53;7.20;;;3.90;99.90;;;3.55;66.59;95334.06;5001771;28;20487;-56
2023/01/29 09:07:56;;;;;;;9.77;8.50;;;3.90;99.90;;;3.57;65.63;95330.44;5004198;28;20933;-56
2023/01/29 09:10:23;;;;;;;10.10;8.67;;;3.80;99.90;;;3.59;66.24;95335.53;5004530;28;20473;-57
2023/01/29 09:12:51;;;;;;;15.23;11.50;;;3.90;99.90;;;3.61;66.07;95330.25;4993861;28;20505;-58
2023/01/29 09:15:18;;;;;;;13.00;9.13;;;3.90;99.90;;;3.62;65.98;95327.56;5007241;28;20491;-57
2023/01/29 09:17:45;;;;;;;16.93;10.00;;;3.90;99.90;;;3.65;66.48;95324.81;5009799;28;20470;-57
2023/01/29 09:20:14;;;;;;;12.90;9.63;;;3.90;99.90;;;3.67;65.73;95329.91;5006284;28;20489;-57
2023/01/29 09:22:41;;;;;;;9.90;8.73;;;3.90;99.90;;;3.68;66.14;95326.41;5007906;28;20468;-61
2023/01/29 09:25:09;;;;;;;13.30;7.90;;;4.00;99.90;;;3.69;65.17;95330.69;5013340;28;20596;-57
2023/01/29 09:27:37;;;;;;;12.83;8.23;;;4.00;99.90;;;3.68;65.86;95323.81;5012781;28;20544;-58
2023/01/29 09:30:05;;;;;;;11.20;7.97;;;4.00;99.90;;;3.69;65.91;95325.47;5005635;28;20454;-57
2023/01/29 09:32:32;;;;;;;9.23;7.30;;;4.00;99.90;;;3.71;65.86;95318.44;5009775;28;20496;-58
2023/01/29 09:34:59;;;;;;;14.00;7.70;;;4.00;99.90;;;3.74;65.41;95318.25;5004081;28;20470;-58
2023/01/29 09:37:28;;;;;;;11.17;8.30;;;4.00;99.90;;;3.75;65.36;95309.53;5009964;28;20452;-59
2023/01/29 09:39:55;;;;;;;10.93;7.97;;;4.00;99.90;;;3.77;65.31;95307.66;5019308;28;20462;-57
2023/01/29 09:42:26;;;;;;;14.70;9.17;;;4.00;99.90;;;3.76;65.68;95312.03;5021342;28;20448;-56
2023/01/29 09:45:01;;;;;;;9.10;7.77;;;4.00;99.90;;;3.75;65.55;95314.72;5019584;28;20461;-59
2023/01/29 09:47:29;;;;;;;10.33;8.40;;;4.00;99.90;;;3.77;65.66;95308.50;5015772;28;20973;-57
2023/01/29 09:49:58;;;;;;;10.93;8.37;;;4.00;99.90;;;3.76;65.70;95305.97;5016836;28;20460;-56
2023/01/29 09:52:28;;;;;;;13.07;8.50;;;4.00;99.90;;;3.78;65.42;95309.34;5024927;28;20488;-57
2023/01/29 09:55:00;;;;;;;12.23;7.57;;;4.00;99.90;;;3.77;65.92;95308.50;5013118;28;20453;-56
2023/01/29 09:57:33;;;;;;;10.23;8.00;;;4.00;99.90;;;3.77;65.90;95305.91;5011424;28;20446;-57
2023/01/29 10:00:00;;;;;;;11.90;7.57;;;4.00;99.90;;;3.78;66.57;95314.56;5016830;28;20460;-57
2023/01/29 10:02:49;;;;;;;12.77;8.23;;;4.00;99.90;;;3.80;66.17;95307.50;5009830;28;20445;-58
2023/01/29 10:05:25;;;;;;;11.93;8.43;;;4.10;99.90;;;3.82;65.93;95307.41;5023539;28;20472;-59
2023/01/29 10:08:31;;;;;;;10.83;7.30;;;4.10;99.90;;;3.84;66.02;95297.75;5005474;28;20467;-57
2023/01/29 10:11:01;;;;;;;14.57;8.90;;;4.10;99.90;;;3.83;65.21;95301.28;5013350;28;20499;-57
2023/01/29 10:13:33;;;;;;;13.23;9.63;;;4.10;99.90;;;3.79;65.23;95292.81;5018883;28;20489;-57
2023/01/29 10:16:15;;;;;;;13.07;8.37;;;4.10;99.90;;;3.81;65.21;95292.72;5015921;28;20788;-57
2023/01/29 10:18:53;;;;;;;14.40;8.40;;;4.10;99.90;;;3.80;65.16;95294.47;5009140;28;20453;-58
2023/01/29 10:21:37;;;;;;;15.43;9.70;;;4.10;99.90;;;3.77;65.72;95292.06;5013658;28;20472;-57
2023/01/29 10:24:15;;;;;;;16.50;9.93;;;4.00;99.90;;;3.77;65.41;95286.84;5015918;28;20444;-56
2023/01/29 10:26:42;;;;;;;13.07;9.07;;;4.00;99.90;;;3.77;65.45;95292.06;5011177;28;20473;-57
2023/01/29 10:29:14;;;;;;;15.30;9.53;;;4.00;99.90;;;3.75;65.33;95289.53;5016772;28;20477;-57
2023/01/29 10:31:41;;;;;;;12.73;8.70;;;4.10;99.90;;;3.75;65.04;95284.34;5015060;28;20499;-57
2023/01/29 10:34:13;;;;;;;11.20;8.77;;;4.10;99.90;;;3.73;65.48;95283.59;5011933;28;21127;-57
2023/01/29 10:36:43;;;;;;;17.10;9.63;;;4.00;99.90;;;3.75;65.27;95286.94;5025815;28;20500;-57
2023/01/29 10:39:17;;;;;;;16.23;10.20;;;4.00;99.90;;;3.72;65.40;95275.88;5016634;28;20445;-58
2023/01/29 10:42:16;;;;;;;16.43;9.43;;;4.00;99.90;;;3.73;65.29;95280.16;5017300;28;20528;-58
2023/01/29 10:44:58;;;;;;;12.53;8.40;;;4.00;99.90;;;3.70;65.38;95283.78;5010194;28;20497;-57
2023/01/29 10:47:55;;;;;;;16.43;9.80;;;4.00;99.90;;;3.67;65.51;95283.94;5021303;28;20897;-57
2023/01/29 10:50:34;;;;;;;17.30;9.50;;;4.00;99.90;;;3.64;65.18;95285.88;5014193;28;20465;-58
2023/01/29 10:53:27;;;;;;;15.83;9.83;;;3.90;99.90;;;3.59;65.47;95281.78;5018111;28;20493;-57
2023/01/29 10:56:01;;;;;;;18.67;8.87;;;3.90;99.90;;;3.57;65.79;95270.63;5010312;28;20514;-58
2023/01/29 10:58:34;;;;;;;14.00;10.03;;;3.90;99.90;;;3.58;65.51;95280.09;5023450;28;20472;-58
2023/01/29 11:01:01;;;;;;;16.90;11.07;;;3.80;99.90;;;3.58;65.38;95267.09;5017654;28;20523;-56
2023/01/29 11:03:31;;;;;;;15.60;9.43;;;3.80;99.90;;;3.58;65.61;95268.88;5019493;28;20457;-58
2023/01/29 11:06:04;;;;;;;15.83;11.23;;;3.90;99.90;;;3.53;65.79;95263.94;5017530;28;20534;-58
2023/01/29 11:08:36;;;;;;;15.20;9.67;;;3.90;99.90;;;3.54;65.32;95262.16;5011508;28;20454;-56